createdAt,value
2023-04-07T00:00:43.308Z,10.02
2023-04-07T00:03:11.429Z,10.25
2023-04-07T00:05:39.478Z,10.85
2023-04-07T00:08:07.604Z,10.02
2023-04-07T00:10:35.862Z,10.77
2023-04-07T00:13:03.882Z,10.52
2023-04-07T00:15:31.873Z,10.10
2023-04-07T00:18:01.341Z,11.27
2023-04-07T00:20:29.410Z,10.75
2023-04-07T00:22:57.341Z,11.48
2023-04-07T00:25:25.302Z,10.32
2023-04-07T00:27:53.171Z,12.43
2023-04-07T00:30:21.232Z,10.73
2023-04-07T00:32:49.412Z,11.60
2023-04-07T00:35:18.922Z,11.93
2023-04-07T00:37:46.811Z,11.45
2023-04-07T00:40:14.734Z,10.73
2023-04-07T00:42:42.659Z,11.65
2023-04-07T00:45:11.512Z,11.65
2023-04-07T00:47:39.442Z,11.25
2023-04-07T00:50:08.578Z,11.00
2023-04-07T00:52:38.123Z,10.07
2023-04-07T00:55:06.950Z,11.50
2023-04-07T00:57:34.836Z,10.77
2023-04-07T01:00:02.841Z,10.27
2023-04-07T01:02:37.605Z,12.10
2023-04-07T01:05:11.413Z,12.93
2023-04-07T01:07:51.932Z,12.07
2023-04-07T01:10:28.204Z,11.02
2023-04-07T01:13:02.652Z,11.35
2023-04-07T01:15:31.982Z,10.70
2023-04-07T01:18:07.721Z,10.85
2023-04-07T01:20:37.609Z,10.57
2023-04-07T01:23:09.428Z,11.23
2023-04-07T01:25:54.951Z,11.07
2023-04-07T01:28:45.816Z,9.93
2023-04-07T01:31:16.677Z,10.80
2023-04-07T01:33:46.165Z,11.57
2023-04-07T01:36:15.335Z,11.07
2023-04-07T01:38:45.624Z,12.15
2023-04-07T01:41:16.100Z,11.68
2023-04-07T01:43:46.256Z,10.20
2023-04-07T01:46:16.967Z,11.15
2023-04-07T01:48:45.155Z,11.20
2023-04-07T01:51:17.415Z,11.68
2023-04-07T01:53:45.976Z,10.90
2023-04-07T01:56:13.872Z,10.73
2023-04-07T01:58:41.766Z,11.40
2023-04-07T02:01:09.696Z,11.43
2023-04-07T02:03:50.878Z,11.25
2023-04-07T02:06:21.792Z,10.45
2023-04-07T02:08:58.614Z,10.85
2023-04-07T02:11:27.398Z,11.13
2023-04-07T02:13:56.565Z,10.80
2023-04-07T02:16:25.134Z,10.73
2023-04-07T02:18:54.880Z,10.48
2023-04-07T02:21:23.742Z,10.55
2023-04-07T02:23:52.356Z,10.90
2023-04-07T02:26:20.552Z,10.70
2023-04-07T02:28:48.501Z,11.23
2023-04-07T02:31:16.458Z,9.88
2023-04-07T02:33:44.331Z,10.48
2023-04-07T02:36:13.518Z,10.25
2023-04-07T02:38:41.542Z,10.15
2023-04-07T02:41:09.452Z,10.60
2023-04-07T02:43:37.331Z,11.43
2023-04-07T02:46:05.551Z,10.63
2023-04-07T02:48:33.509Z,11.68
2023-04-07T02:51:01.469Z,11.10
2023-04-07T02:53:30.801Z,10.93
2023-04-07T02:55:58.776Z,9.65
2023-04-07T02:58:26.751Z,10.52
2023-04-07T03:00:54.652Z,11.57
2023-04-07T03:03:22.724Z,11.60
2023-04-07T03:05:50.846Z,10.52
2023-04-07T03:08:18.742Z,12.35
2023-04-07T03:10:48.020Z,11.52
2023-04-07T03:13:19.142Z,10.77
2023-04-07T03:15:47.350Z,13.10
2023-04-07T03:18:15.758Z,12.55
2023-04-07T03:20:44.547Z,12.25
2023-04-07T03:23:13.068Z,12.32
2023-04-07T03:25:41.870Z,12.18
2023-04-07T03:31:22.835Z,11.25
2023-04-07T03:34:03.860Z,11.80
2023-04-07T03:36:54.392Z,12.80
2023-04-07T03:39:48.338Z,12.95
2023-04-07T03:42:29.037Z,14.30
2023-04-07T03:45:10.753Z,12.38
2023-04-07T03:47:47.654Z,12.95
2023-04-07T03:50:26.855Z,12.13
2023-04-07T03:53:03.165Z,12.18
2023-04-07T03:56:02.497Z,11.48
2023-04-07T03:58:45.155Z,12.25
2023-04-07T04:01:38.173Z,12.32
2023-04-07T04:04:20.292Z,11.95
2023-04-07T04:07:02.540Z,11.52
2023-04-07T04:09:37.827Z,12.38
2023-04-07T04:15:17.579Z,11.13
2023-04-07T04:18:06.301Z,10.93
2023-04-07T04:20:44.162Z,11.55
2023-04-07T04:23:24.716Z,11.95
2023-04-07T04:26:15.905Z,12.05
2023-04-07T04:29:19.862Z,13.32
2023-04-07T04:32:23.341Z,11.45
2023-04-07T04:34:57.321Z,12.52
2023-04-07T04:37:36.149Z,12.60
2023-04-07T04:40:15.276Z,11.32
2023-04-07T04:42:51.891Z,12.40
2023-04-07T04:45:22.735Z,10.88
2023-04-07T04:47:54.813Z,12.77
2023-04-07T04:50:51.142Z,13.15
2023-04-07T04:53:19.919Z,12.30
2023-04-07T04:55:52.415Z,11.02
2023-04-07T04:58:24.542Z,11.75
2023-04-07T05:01:01.055Z,12.52
2023-04-07T05:03:51.731Z,12.13
2023-04-07T05:06:29.051Z,11.55
2023-04-07T05:09:19.151Z,11.63
2023-04-07T05:11:56.521Z,12.85
2023-04-07T05:14:29.095Z,11.90
2023-04-07T05:17:02.813Z,12.75
2023-04-07T05:19:36.721Z,12.73
2023-04-07T05:22:08.740Z,11.88
2023-04-07T05:24:45.817Z,12.05
2023-04-07T05:27:37.384Z,11.75
2023-04-07T05:30:25.636Z,12.45
2023-04-07T05:32:55.518Z,12.02
2023-04-07T05:35:33.683Z,12.63
2023-04-07T05:38:32.463Z,11.68
2023-04-07T05:41:20.782Z,11.23
2023-04-07T05:43:54.967Z,11.13
2023-04-07T05:46:29.152Z,13.23
2023-04-07T05:49:19.625Z,13.13
2023-04-07T05:51:59.076Z,12.50
2023-04-07T05:54:52.539Z,13.48
2023-04-07T05:57:43.809Z,12.25
2023-04-07T06:00:27.724Z,13.07
2023-04-07T06:03:21.623Z,11.68
2023-04-07T06:06:29.877Z,10.93
2023-04-07T06:09:18.082Z,10.25
2023-04-07T06:12:40.785Z,12.00
2023-04-07T06:16:00.714Z,10.93
2023-04-07T06:18:29.857Z,10.82
2023-04-07T06:21:09.166Z,11.47
2023-04-07T06:23:51.653Z,11.38
2023-04-07T06:26:25.425Z,11.00
2023-04-07T06:28:56.066Z,11.43
2023-04-07T06:31:28.730Z,10.40
2023-04-07T06:36:38.440Z,9.35
2023-04-07T06:39:09.385Z,10.50
2023-04-07T06:41:43.286Z,9.77
2023-04-07T06:44:13.263Z,11.25
2023-04-07T06:46:44.580Z,11.38
2023-04-07T06:49:13.378Z,11.07
2023-04-07T06:51:42.525Z,11.05
2023-04-07T06:54:14.169Z,9.77
2023-04-07T06:56:48.844Z,10.37
2023-04-07T06:59:20.703Z,9.80
2023-04-07T07:01:54.754Z,10.05
2023-04-07T07:04:30.546Z,10.00
2023-04-07T07:07:07.632Z,9.82
2023-04-07T07:09:55.242Z,10.13
2023-04-07T07:12:44.650Z,9.57
2023-04-07T07:15:23.837Z,9.93
2023-04-07T07:17:52.780Z,12.68
2023-04-07T07:20:26.440Z,9.50
2023-04-07T07:22:59.705Z,9.68
2023-04-07T07:25:31.787Z,9.55
2023-04-07T07:28:03.240Z,9.10
2023-04-07T07:30:33.264Z,9.10
2023-04-07T07:33:06.011Z,8.55
2023-04-07T07:35:39.100Z,8.48
2023-04-07T07:38:08.368Z,7.70
2023-04-07T07:40:37.537Z,7.63
2023-04-07T07:43:10.501Z,7.68
2023-04-07T07:45:44.968Z,9.48
2023-04-07T07:48:13.608Z,8.25
2023-04-07T07:50:48.092Z,8.23
2023-04-07T07:53:17.857Z,6.90
2023-04-07T07:55:51.958Z,5.65
2023-04-07T07:58:30.571Z,6.97
2023-04-07T08:01:11.428Z,7.10
2023-04-07T08:08:46.463Z,7.03
2023-04-07T08:11:14.526Z,6.07
2023-04-07T08:13:45.553Z,7.03
2023-04-07T08:16:15.703Z,6.35
2023-04-07T08:18:43.682Z,6.25
2023-04-07T08:21:15.608Z,6.38
2023-04-07T08:23:46.303Z,5.63
2023-04-07T08:26:19.042Z,5.95
2023-04-07T08:28:47.200Z,6.40
2023-04-07T08:31:25.430Z,6.03
2023-04-07T08:33:54.366Z,6.55
2023-04-07T08:36:22.623Z,7.20
2023-04-07T08:38:59.311Z,6.32
2023-04-07T08:41:42.690Z,5.72
2023-04-07T08:44:20.776Z,5.60
2023-04-07T08:47:11.527Z,6.18
2023-04-07T08:50:05.865Z,5.35
2023-04-07T08:52:48.136Z,5.35
2023-04-07T08:55:30.809Z,6.30
2023-04-07T08:58:02.417Z,5.95
2023-04-07T09:00:35.643Z,6.38
2023-04-07T09:03:09.389Z,6.25
2023-04-07T09:05:42.040Z,6.95
2023-04-07T09:08:10.027Z,5.75
2023-04-07T09:10:38.411Z,5.75
2023-04-07T09:13:09.734Z,5.20
2023-04-07T09:15:39.046Z,5.68
2023-04-07T09:18:08.873Z,4.90
2023-04-07T09:20:59.383Z,4.15
2023-04-07T09:23:32.504Z,4.38
2023-04-07T09:26:02.090Z,3.15
2023-04-07T09:28:43.414Z,4.18
2023-04-07T09:31:11.402Z,3.45
2023-04-07T09:33:41.154Z,3.33
2023-04-07T09:36:10.544Z,3.58
2023-04-07T09:38:41.107Z,3.38
2023-04-07T09:41:11.283Z,3.85
2023-04-07T09:43:41.229Z,3.08
2023-04-07T09:46:16.457Z,3.67
2023-04-07T09:48:48.472Z,2.90
2023-04-07T09:51:19.696Z,2.97
2023-04-07T09:53:54.375Z,3.10
2023-04-07T09:56:23.991Z,3.25
2023-04-07T09:58:53.198Z,3.38
2023-04-07T10:01:22.869Z,3.00
2023-04-07T10:03:56.596Z,2.95
2023-04-07T10:06:39.567Z,2.90
2023-04-07T10:09:15.297Z,1.88
2023-04-07T10:11:48.230Z,1.73
2023-04-07T10:14:23.582Z,2.15
2023-04-07T10:16:57.081Z,2.25
2023-04-07T10:19:32.630Z,2.45
2023-04-07T10:22:07.833Z,2.38
2023-04-07T10:24:55.356Z,2.50
2023-04-07T10:27:30.634Z,2.92
2023-04-07T10:30:00.052Z,2.80
2023-04-07T10:32:28.308Z,2.15
2023-04-07T10:35:04.878Z,2.42
2023-04-07T10:37:36.304Z,2.65
2023-04-07T10:40:35.263Z,2.17
2023-04-07T10:43:11.448Z,1.83
2023-04-07T10:46:02.724Z,1.90
2023-04-07T10:48:33.256Z,1.98
2023-04-07T10:51:19.266Z,2.40
2023-04-07T10:54:29.092Z,1.70
2023-04-07T10:57:13.284Z,1.75
2023-04-07T10:59:49.881Z,2.60
2023-04-07T11:02:40.161Z,2.08
2023-04-07T11:05:08.969Z,2.13
2023-04-07T11:07:54.173Z,1.85
2023-04-07T11:10:31.325Z,2.00
2023-04-07T11:13:04.830Z,1.70
2023-04-07T11:15:34.042Z,1.55
2023-04-07T11:18:24.420Z,1.65
2023-04-07T11:20:54.867Z,1.58
2023-04-07T11:23:25.519Z,2.10
2023-04-07T11:26:03.062Z,1.70
2023-04-07T11:28:31.897Z,1.50
2023-04-07T11:31:00.720Z,1.50
2023-04-07T11:33:35.925Z,1.80
2023-04-07T11:36:05.045Z,2.20
2023-04-07T11:38:38.637Z,1.60
2023-04-07T11:41:21.577Z,1.80
2023-04-07T11:43:51.058Z,2.40
2023-04-07T11:46:20.308Z,2.45
2023-04-07T11:48:48.565Z,2.25
2023-04-07T11:51:18.266Z,2.00
2023-04-07T11:53:48.450Z,2.08
2023-04-07T11:56:18.466Z,1.80
2023-04-07T11:58:48.884Z,1.80
2023-04-07T12:01:17.286Z,2.22
2023-04-07T12:04:00.222Z,2.28
2023-04-07T12:06:30.417Z,2.90
2023-04-07T12:09:00.546Z,2.50
2023-04-07T12:11:28.854Z,3.25
2023-04-07T12:13:57.380Z,2.33
2023-04-07T12:16:25.798Z,1.83
2023-04-07T12:18:54.378Z,2.20
2023-04-07T12:21:22.431Z,2.50
2023-04-07T12:23:50.682Z,1.90
2023-04-07T12:26:23.427Z,1.70
2023-04-07T12:28:51.711Z,2.00
2023-04-07T12:31:19.739Z,2.60
2023-04-07T12:33:48.043Z,2.22
2023-04-07T12:36:17.057Z,1.58
2023-04-07T12:38:45.604Z,3.40
2023-04-07T12:41:13.489Z,2.30
2023-04-07T12:43:44.021Z,1.90
2023-04-07T12:46:12.642Z,2.20
2023-04-07T12:48:40.749Z,1.83
2023-04-07T12:51:08.901Z,1.80
2023-04-07T12:53:36.892Z,2.08
2023-04-07T12:56:05.056Z,2.05
2023-04-07T12:58:33.233Z,1.73
2023-04-07T13:01:46.271Z,2.70
2023-04-07T13:04:46.961Z,1.88
2023-04-07T13:07:58.202Z,2.20
2023-04-07T13:10:53.039Z,2.45
2023-04-07T13:13:21.257Z,2.53
2023-04-07T13:15:49.481Z,2.20
2023-04-07T13:18:18.874Z,2.30
2023-04-07T13:20:54.895Z,2.33
2023-04-07T13:23:26.343Z,2.50
2023-04-07T13:25:54.594Z,2.55
2023-04-07T13:28:22.716Z,2.85
2023-04-07T13:30:51.109Z,2.25
2023-04-07T13:33:20.580Z,2.00
2023-04-07T13:35:48.636Z,2.13
2023-04-07T13:38:16.693Z,2.40
2023-04-07T13:40:44.928Z,2.70
2023-04-07T13:43:13.131Z,2.55
2023-04-07T13:45:41.529Z,2.30
2023-04-07T13:48:09.761Z,2.55
2023-04-07T13:50:40.048Z,2.40
2023-04-07T13:53:08.103Z,2.00
2023-04-07T13:55:36.710Z,2.20
2023-04-07T13:58:04.810Z,2.22
2023-04-07T14:00:35.405Z,2.33
2023-04-07T14:03:04.285Z,2.05
2023-04-07T14:05:32.736Z,3.10
2023-04-07T14:08:02.399Z,2.42
2023-04-07T14:10:30.474Z,3.13
2023-04-07T14:12:58.770Z,3.05
2023-04-07T14:15:27.581Z,2.72
2023-04-07T14:17:55.638Z,2.72
2023-04-07T14:20:25.336Z,2.90
2023-04-07T14:22:54.960Z,2.60
2023-04-07T14:25:24.415Z,2.90
2023-04-07T14:27:52.725Z,2.42
2023-04-07T14:30:20.931Z,2.42
2023-04-07T14:32:48.845Z,2.42
2023-04-07T14:35:16.921Z,2.20
2023-04-07T14:37:44.840Z,2.65
2023-04-07T14:40:13.729Z,2.40
2023-04-07T14:42:43.113Z,2.47
2023-04-07T14:45:12.701Z,1.85
2023-04-07T14:47:41.110Z,1.80
2023-04-07T14:50:09.453Z,1.52
2023-04-07T14:52:37.509Z,2.28
2023-04-07T14:55:06.731Z,2.40
2023-04-07T14:57:34.862Z,2.90
2023-04-07T15:00:04.521Z,2.53
2023-04-07T15:02:33.100Z,3.05
2023-04-07T15:05:03.938Z,2.97
2023-04-07T15:07:32.249Z,2.78
2023-04-07T15:10:01.167Z,2.90
2023-04-07T15:12:34.204Z,2.53
2023-04-07T15:15:02.538Z,2.88
2023-04-07T15:17:43.762Z,3.03
2023-04-07T15:20:53.953Z,3.28
2023-04-07T15:23:43.252Z,3.15
2023-04-07T15:26:14.856Z,3.70
2023-04-07T15:28:43.080Z,3.55
2023-04-07T15:31:11.574Z,3.30
2023-04-07T15:33:55.357Z,4.05
2023-04-07T15:36:23.741Z,2.88
2023-04-07T15:38:52.054Z,2.85
2023-04-07T15:41:22.799Z,3.10
2023-04-07T15:43:51.498Z,2.95
2023-04-07T15:46:19.651Z,3.35
2023-04-07T15:48:49.305Z,3.33
2023-04-07T15:51:17.451Z,3.70
2023-04-07T15:53:45.687Z,3.00
2023-04-07T15:56:14.302Z,3.10
2023-04-07T15:58:42.699Z,2.80
2023-04-07T16:01:11.207Z,2.60
2023-04-07T16:03:41.051Z,2.58
2023-04-07T16:06:11.565Z,2.58
2023-04-07T16:08:39.887Z,2.55
2023-04-07T16:11:07.955Z,2.75
2023-04-07T16:13:36.007Z,2.47
2023-04-07T16:16:04.536Z,2.95
2023-04-07T16:18:37.279Z,2.95
2023-04-07T16:21:11.774Z,3.38
2023-04-07T16:24:15.538Z,3.00
2023-04-07T16:26:56.705Z,3.33
2023-04-07T16:29:36.251Z,3.05
2023-04-07T16:32:24.356Z,3.45
2023-04-07T16:34:57.502Z,3.70
2023-04-07T16:37:41.480Z,3.38
2023-04-07T16:40:16.647Z,3.22
2023-04-07T16:43:10.967Z,3.03
2023-04-07T16:50:24.124Z,2.13
2023-04-07T16:53:11.569Z,2.42
2023-04-07T16:56:00.945Z,2.55
2023-04-07T16:58:33.555Z,2.40
2023-04-07T17:05:39.873Z,3.65
2023-04-07T17:08:30.497Z,2.80
2023-04-07T17:13:48.726Z,3.03
2023-04-07T17:14:51.427Z,3.15
2023-04-07T17:17:39.604Z,3.00
2023-04-07T17:24:36.406Z,3.63
2023-04-07T17:27:04.698Z,2.50
2023-04-07T17:29:38.746Z,2.67
2023-04-07T17:32:09.969Z,2.47
2023-04-07T17:34:41.840Z,1.90
2023-04-07T17:37:13.742Z,2.17
2023-04-07T17:39:42.034Z,2.00
2023-04-07T17:42:11.402Z,2.15
2023-04-07T17:44:58.477Z,2.25
2023-04-07T17:47:27.113Z,2.63
2023-04-07T17:49:58.314Z,2.20
2023-04-07T17:52:26.833Z,2.15
2023-04-07T17:54:54.924Z,2.55
2023-04-07T17:57:23.069Z,2.20
2023-04-07T17:59:55.432Z,2.38
2023-04-07T18:02:26.735Z,2.80
2023-04-07T18:04:57.676Z,2.53
2023-04-07T18:07:25.904Z,2.00
2023-04-07T18:09:54.735Z,1.88
2023-04-07T18:12:22.978Z,1.98
2023-04-07T18:14:53.772Z,1.92
2023-04-07T18:17:22.048Z,1.63
2023-04-07T18:19:50.893Z,1.42
2023-04-07T18:22:19.372Z,1.90
2023-04-07T18:24:47.598Z,2.05
2023-04-07T18:27:16.002Z,2.13
2023-04-07T18:29:47.560Z,1.80
2023-04-07T18:32:17.569Z,1.67
2023-04-07T18:34:48.377Z,2.08
2023-04-07T18:37:16.674Z,1.98
2023-04-07T18:39:45.212Z,2.05
2023-04-07T18:42:16.495Z,1.58
2023-04-07T18:44:55.754Z,2.17
2023-04-07T18:47:36.472Z,1.55
2023-04-07T18:50:13.480Z,1.52
2023-04-07T18:52:42.247Z,1.50
2023-04-07T18:55:12.946Z,1.60
2023-04-07T18:57:42.130Z,1.80
2023-04-07T19:00:20.053Z,1.83
2023-04-07T19:02:59.169Z,1.80
2023-04-07T19:05:27.700Z,1.85
2023-04-07T19:07:58.437Z,1.77
2023-04-07T19:10:27.356Z,2.30
2023-04-07T19:12:56.381Z,1.95
2023-04-07T19:15:28.301Z,2.20
2023-04-07T19:17:59.234Z,2.70
2023-04-07T19:20:27.951Z,2.20
2023-04-07T19:22:57.596Z,2.58
2023-04-07T19:25:25.939Z,2.35
2023-04-07T19:27:54.463Z,2.25
2023-04-07T19:30:22.599Z,2.47
2023-04-07T19:32:52.407Z,2.70
2023-04-07T19:35:22.024Z,3.13
2023-04-07T19:37:50.553Z,2.70
2023-04-07T19:40:18.759Z,3.22
2023-04-07T19:42:47.181Z,2.83
2023-04-07T19:45:15.402Z,3.13
2023-04-07T19:47:44.690Z,2.83
2023-04-07T19:50:14.625Z,2.60
2023-04-07T19:52:53.847Z,2.72
2023-04-07T19:55:22.994Z,3.38
2023-04-07T19:57:52.187Z,3.50
2023-04-07T20:00:20.646Z,3.10
2023-04-07T20:02:50.923Z,3.47
2023-04-07T20:05:19.890Z,3.85
2023-04-07T20:07:49.590Z,3.60
2023-04-07T20:10:17.963Z,4.22
2023-04-07T20:12:46.263Z,6.93
2023-04-07T20:15:14.774Z,8.40
2023-04-07T20:17:43.593Z,4.53
2023-04-07T20:20:13.186Z,4.38
2023-04-07T20:22:41.605Z,2.90
2023-04-07T20:25:11.673Z,3.42
2023-04-07T20:27:45.579Z,3.17
2023-04-07T20:30:13.780Z,2.95
2023-04-07T20:32:43.424Z,3.65
2023-04-07T20:35:12.700Z,3.13
2023-04-07T20:37:40.994Z,3.22
2023-04-07T20:40:11.761Z,3.78
2023-04-07T20:42:39.858Z,3.50
2023-04-07T20:45:10.049Z,2.88
2023-04-07T20:47:39.332Z,4.20
2023-04-07T20:50:11.692Z,3.65
2023-04-07T20:52:43.509Z,3.58
2023-04-07T20:55:17.037Z,4.25
2023-04-07T20:57:48.520Z,3.55
2023-04-07T21:00:19.240Z,3.70
2023-04-07T21:02:50.396Z,4.43
2023-04-07T21:05:31.046Z,3.72
2023-04-07T21:08:06.866Z,4.30
2023-04-07T21:10:47.514Z,4.00
2023-04-07T21:13:36.888Z,4.07
2023-04-07T21:16:10.531Z,4.50
2023-04-07T21:18:42.173Z,4.57
2023-04-07T21:21:22.596Z,4.40
2023-04-07T21:24:08.559Z,5.03
2023-04-07T21:26:42.133Z,3.78
2023-04-07T21:29:35.238Z,3.22
2023-04-07T21:32:04.620Z,4.28
2023-04-07T21:34:33.234Z,4.00
2023-04-07T21:37:04.679Z,4.32
2023-04-07T21:39:41.605Z,4.35
2023-04-07T21:42:17.649Z,4.05
2023-04-07T21:44:56.658Z,4.60
2023-04-07T21:47:25.334Z,4.50
2023-04-07T21:49:59.754Z,3.72
2023-04-07T21:52:38.349Z,4.20
2023-04-07T21:55:13.626Z,4.15
2023-04-07T21:57:46.849Z,5.13
2023-04-07T22:00:17.119Z,3.90
2023-04-07T22:03:14.661Z,4.38
2023-04-07T22:06:21.664Z,5.05
2023-04-07T22:09:03.611Z,4.97
2023-04-07T22:11:41.768Z,4.82
2023-04-07T22:14:26.635Z,5.80
2023-04-07T22:16:54.984Z,4.55
2023-04-07T22:19:23.072Z,5.30
2023-04-07T22:21:51.264Z,5.10
2023-04-07T22:24:20.261Z,5.47
2023-04-07T22:26:48.436Z,5.55
2023-04-07T22:29:16.592Z,5.93
2023-04-07T22:31:46.656Z,5.97
2023-04-07T22:34:15.541Z,5.97
2023-04-07T22:36:43.844Z,6.05
2023-04-07T22:39:11.811Z,5.88
2023-04-07T22:41:39.737Z,6.43
2023-04-07T22:44:07.765Z,6.13
2023-04-07T22:46:35.864Z,6.32
2023-04-07T22:49:06.174Z,6.15
2023-04-07T22:51:34.107Z,6.68
2023-04-07T22:54:01.988Z,6.72
2023-04-07T22:56:29.952Z,6.60
2023-04-07T22:59:05.136Z,6.88
2023-04-07T23:01:33.417Z,7.20
2023-04-07T23:04:01.502Z,6.95
2023-04-07T23:06:31.399Z,7.47
2023-04-07T23:08:59.362Z,7.35
2023-04-07T23:11:27.312Z,7.30
2023-04-07T23:13:55.281Z,8.07
2023-04-07T23:16:23.965Z,7.80
2023-04-07T23:18:52.360Z,6.75
2023-04-07T23:21:20.727Z,8.25
2023-04-07T23:23:50.482Z,8.23
2023-04-07T23:26:18.370Z,7.15
2023-04-07T23:28:46.348Z,8.60
2023-04-07T23:31:14.408Z,7.32
2023-04-07T23:33:42.420Z,8.70
2023-04-07T23:36:10.356Z,7.82
2023-04-07T23:38:39.523Z,7.63
2023-04-07T23:41:09.090Z,8.40
2023-04-07T23:43:36.979Z,8.93
2023-04-07T23:46:04.996Z,8.30
2023-04-07T23:48:33.044Z,8.52
2023-04-07T23:51:01.025Z,7.88
2023-04-07T23:54:01.179Z,8.18
2023-04-07T23:56:52.067Z,8.82
2023-04-07T23:59:39.005Z,8.30
